createdAt,value
2023-01-02T00:01:16.448Z,97160.81
2023-01-02T00:06:08.829Z,97158.59
2023-01-02T00:11:00.583Z,97153.75
2023-01-02T00:15:52.623Z,97143.91
2023-01-02T00:20:44.331Z,97145.72
2023-01-02T00:25:36.175Z,97141.09
2023-01-02T00:30:33.843Z,97136.91
2023-01-02T00:35:29.535Z,97132.31
2023-01-02T00:40:21.261Z,97133.91
2023-01-02T00:45:13.002Z,97120.63
2023-01-02T00:50:05.743Z,97128.44
2023-01-02T00:54:57.448Z,97128.31
2023-01-02T00:59:49.124Z,97133.16
2023-01-02T01:04:40.843Z,97124.50
2023-01-02T01:09:32.541Z,97137.78
2023-01-02T01:14:24.385Z,97138.88
2023-01-02T01:19:16.092Z,97128.34
2023-01-02T01:24:07.813Z,97146.84
2023-01-02T01:28:59.547Z,97139.31
2023-01-02T01:33:51.444Z,97131.69
2023-01-02T01:38:44.644Z,97132.50
2023-01-02T01:43:58.169Z,97121.38
2023-01-02T01:48:59.945Z,97116.09
2023-01-02T01:54:02.784Z,97121.25
2023-01-02T01:58:54.691Z,97116.84
2023-01-02T02:03:49.583Z,97128.56
2023-01-02T02:09:24.590Z,97121.28
2023-01-02T02:14:16.434Z,97121.84
2023-01-02T02:19:44.993Z,97112.56
2023-01-02T02:25:03.317Z,97112.84
2023-01-02T02:30:10.534Z,97120.50
2023-01-02T02:35:56.078Z,97111.09
2023-01-02T02:41:04.280Z,97108.84
2023-01-02T02:46:28.081Z,97102.69
2023-01-02T02:51:46.088Z,97102.03
2023-01-02T02:56:40.293Z,97096.59
2023-01-02T03:01:32.256Z,97075.44
2023-01-02T03:07:17.551Z,97067.72
2023-01-02T03:12:43.645Z,97059.47
2023-01-02T03:18:03.499Z,97069.63
2023-01-02T03:23:02.170Z,97076.59
2023-01-02T03:28:00.326Z,97062.47
2023-01-02T03:33:07.322Z,97047.53
2023-01-02T03:38:02.316Z,97057.91
2023-01-02T03:43:23.567Z,97063.81
2023-01-02T03:48:42.553Z,97061.69
2023-01-02T03:53:38.260Z,97070.19
2023-01-02T03:59:17.795Z,97066.69
2023-01-02T04:04:27.851Z,97074.59
2023-01-02T04:09:26.261Z,97076.91
2023-01-02T04:14:27.712Z,97067.22
2023-01-02T04:19:28.441Z,97067.59
2023-01-02T04:24:31.681Z,97061.13
2023-01-02T04:29:23.574Z,97064.91
2023-01-02T04:34:18.885Z,97057.28
2023-01-02T04:39:11.027Z,97044.50
2023-01-02T04:44:02.801Z,97056.75
2023-01-02T04:48:55.778Z,97060.06
2023-01-02T04:53:52.062Z,97052.81
2023-01-02T04:58:45.609Z,97057.66
2023-01-02T05:08:53.689Z,97058.63
2023-01-02T05:18:52.924Z,97073.56
2023-01-02T05:34:04.677Z,97063.53
2023-01-02T05:54:17.991Z,97086.16
2023-01-02T06:04:19.857Z,97088.47
2023-01-02T06:19:28.852Z,97088.38
2023-01-02T06:24:25.388Z,97084.97
2023-01-02T06:29:18.212Z,97079.78
2023-01-02T06:34:12.359Z,97080.84
2023-01-02T06:59:31.904Z,97097.03
2023-01-02T07:19:45.975Z,97099.72
2023-01-02T07:29:54.589Z,97106.09
2023-01-02T07:39:53.203Z,97109.34
2023-01-02T07:44:52.996Z,97127.06
2023-01-02T07:49:45.969Z,97130.91
2023-01-02T07:54:46.554Z,97126.06
2023-01-02T08:30:22.549Z,97155.53
2023-01-02T08:45:26.407Z,97176.19
2023-01-02T09:00:36.484Z,97188.84
2023-01-02T09:10:45.931Z,97204.44
2023-01-02T09:20:46.382Z,97193.47
2023-01-02T09:25:42.412Z,97209.84
2023-01-02T09:30:36.638Z,97222.78
2023-01-02T09:40:48.533Z,97247.25
2023-01-02T09:45:49.701Z,97236.38
2023-01-02T09:50:42.455Z,97226.19
2023-01-02T10:14:08.379Z,97231.47
2023-01-02T10:18:51.857Z,97232.06
2023-01-02T10:45:23.339Z,97229.31
2023-01-02T11:37:12.649Z,97230.03
2023-01-02T11:42:47.680Z,97220.16
2023-01-02T11:47:52.008Z,97232.53
2023-01-02T11:53:06.614Z,97227.72
2023-01-02T12:14:27.665Z,97232.84
2023-01-02T12:19:54.750Z,97234.88
2023-01-02T12:52:51.759Z,97249.22
2023-01-02T13:31:19.092Z,97274.47
2023-01-02T13:36:33.194Z,97281.72
2023-01-02T13:52:02.064Z,97308.63
2023-01-02T13:57:32.598Z,97308.66
2023-01-02T14:18:14.040Z,97328.13
2023-01-02T14:49:31.392Z,97359.22
2023-01-02T15:10:28.635Z,97386.00
2023-01-02T16:07:29.469Z,97483.44
2023-01-02T16:22:55.847Z,97505.53
2023-01-02T16:33:54.797Z,97511.69
2023-01-02T16:38:59.892Z,97513.41
2023-01-02T16:59:36.894Z,97546.41
2023-01-02T17:19:53.949Z,97559.31
2023-01-02T18:36:27.779Z,97618.44
2023-01-02T18:41:27.030Z,97608.75
2023-01-02T18:46:25.971Z,97614.28
2023-01-02T18:51:39.204Z,97613.25
2023-01-02T18:56:39.732Z,97618.94
2023-01-02T19:07:33.887Z,97635.69
2023-01-02T19:23:02.580Z,97649.84
2023-01-02T19:27:57.049Z,97653.25
2023-01-02T19:32:50.744Z,97654.47
2023-01-02T19:37:47.999Z,97658.53
2023-01-02T19:42:40.989Z,97654.88
2023-01-02T19:47:43.103Z,97665.38
2023-01-02T19:52:35.582Z,97661.75
2023-01-02T20:02:35.253Z,97666.59
2023-01-02T20:07:33.849Z,97672.06
2023-01-02T20:22:52.470Z,97699.91
2023-01-02T20:32:55.301Z,97694.91
2023-01-02T20:37:50.143Z,97688.22
2023-01-02T20:42:50.581Z,97686.44
2023-01-02T21:08:17.169Z,97689.66
2023-01-02T21:18:34.892Z,97706.44
2023-01-02T21:23:38.839Z,97732.72
2023-01-02T21:28:31.878Z,97726.25
2023-01-02T21:33:26.673Z,97750.09
2023-01-02T21:43:28.464Z,97757.16
2023-01-02T21:48:21.017Z,97757.31
2023-01-02T21:53:17.171Z,97766.41
2023-01-02T21:58:14.462Z,97774.72
2023-01-02T22:03:08.136Z,97763.81
2023-01-02T22:08:00.795Z,97774.50
2023-01-02T22:18:02.175Z,97770.84
2023-01-02T22:28:00.785Z,97787.63
2023-01-02T22:32:57.713Z,97794.28
2023-01-02T22:37:51.013Z,97803.09
2023-01-02T22:48:08.449Z,97816.59
2023-01-02T22:53:00.805Z,97812.75
2023-01-02T22:57:52.703Z,97816.97
2023-01-02T23:02:44.828Z,97819.78
2023-01-02T23:07:45.404Z,97811.72
2023-01-02T23:18:03.045Z,97806.59
2023-01-02T23:22:56.853Z,97802.56
2023-01-02T23:27:51.296Z,97805.78
2023-01-02T23:32:43.397Z,97815.44
2023-01-02T23:42:41.574Z,97815.44
2023-01-02T23:47:35.264Z,97810.19
2023-01-02T23:52:27.261Z,97823.44
2023-01-02T23:57:19.256Z,97832.09
